Time;durP1;ratioP1;P1;durP2;ratioP2;P2;SDS_P1;SDS_P2;PMS_P1;PMS_P2;Temp;Humidity;BMP_temperature;BMP_pressure;BME280_temperature;BME280_humidity;BME280_pressure;Samples;Min_cycle;Max_cycle;Signal;HPM_P1;HPM_P2
2021/04/01 00:00:48;;;;;;;3.80;1.50;;;10.70;77.50;;;;;;5096632;28;20164;-72
2021/04/01 00:03:14;;;;;;;6.43;1.30;;;10.60;77.90;;;;;;5096206;28;20571;-72
2021/04/01 00:05:40;;;;;;;5.32;1.95;;;10.60;78.20;;;;;;5096140;28;20522;-72
2021/04/01 00:08:06;;;;;;;3.80;1.37;;;10.50;78.70;;;;;;5096088;28;20314;-72
2021/04/01 00:10:36;;;;;;;3.70;1.67;;;10.50;78.90;;;;;;5096637;28;20200;-71
2021/04/01 00:13:02;;;;;;;4.10;1.50;;;10.50;79.40;;;;;;5096314;28;20251;-72
2021/04/01 00:15:28;;;;;;;5.10;1.45;;;10.40;79.40;;;;;;5095738;28;20270;-72
2021/04/01 00:17:54;;;;;;;4.60;2.00;;;10.40;79.80;;;;;;5094651;28;20196;-72
2021/04/01 00:20:20;;;;;;;3.87;1.70;;;10.40;80.10;;;;;;5095656;28;20166;-71
2021/04/01 00:22:45;;;;;;;3.83;1.73;;;10.40;80.70;;;;;;5095750;28;20176;-72
2021/04/01 00:25:14;;;;;;;4.00;1.33;;;10.30;80.90;;;;;;5095779;28;20525;-72
2021/04/01 00:27:40;;;;;;;17.98;1.55;;;10.30;81.60;;;;;;5096095;28;20180;-72
2021/04/01 00:30:08;;;;;;;3.30;1.40;;;10.30;81.70;;;;;;5096080;28;20179;-71
2021/04/01 00:32:34;;;;;;;3.20;1.50;;;10.20;81.90;;;;;;5095587;28;20497;-72
2021/04/01 00:35:02;;;;;;;4.33;1.23;;;10.20;82.30;;;;;;5095445;28;20170;-72
2021/04/01 00:37:28;;;;;;;4.40;1.55;;;10.10;82.90;;;;;;5095796;28;20673;-73
2021/04/01 00:39:53;;;;;;;5.60;1.60;;;10.10;83.50;;;;;;5095962;28;20174;-72
2021/04/01 00:42:19;;;;;;;5.63;1.83;;;10.00;83.90;;;;;;5094281;28;20172;-71
2021/04/01 00:44:45;;;;;;;5.40;1.60;;;10.00;84.10;;;;;;5095356;28;20183;-72
2021/04/01 00:47:11;;;;;;;4.20;1.60;;;10.00;84.60;;;;;;5094296;28;20202;-72
2021/04/01 00:49:37;;;;;;;4.77;1.80;;;10.00;85.40;;;;;;5095615;28;20496;-72
2021/04/01 00:52:05;;;;;;;4.28;1.80;;;10.00;85.50;;;;;;5095372;28;20176;-71
2021/04/01 00:54:31;;;;;;;4.47;1.70;;;9.90;87.60;;;;;;5095191;28;20192;-72
2021/04/01 00:56:56;;;;;;;3.43;1.30;;;9.90;88.10;;;;;;5095261;28;20222;-72
2021/04/01 00:59:22;;;;;;;4.20;1.20;;;9.80;88.40;;;;;;5095501;28;20693;-72
2021/04/01 01:01:51;;;;;;;9.00;2.03;;;9.80;88.60;;;;;;5095367;28;20398;-73
2021/04/01 01:04:17;;;;;;;4.68;1.58;;;9.80;89.20;;;;;;5094788;28;20172;-72
2021/04/01 01:06:44;;;;;;;5.45;1.77;;;9.70;90.00;;;;;;5095066;28;20592;-71
2021/04/01 01:09:10;;;;;;;3.75;1.10;;;9.60;90.00;;;;;;5094115;28;20637;-71
2021/04/01 01:11:37;;;;;;;3.58;1.65;;;9.70;90.10;;;;;;5095390;28;20541;-72
2021/04/01 01:14:04;;;;;;;4.30;1.60;;;9.70;90.40;;;;;;5094705;28;20187;-71
2021/04/01 01:16:31;;;;;;;5.32;1.30;;;9.60;90.60;;;;;;5095211;28;20195;-71
2021/04/01 01:18:57;;;;;;;3.50;1.20;;;9.60;90.80;;;;;;5093262;28;20211;-72
2021/04/01 01:21:23;;;;;;;4.10;1.90;;;9.50;91.20;;;;;;5095228;28;20501;-73
2021/04/01 01:23:50;;;;;;;3.63;1.43;;;9.50;91.60;;;;;;5094795;28;20166;-71
2021/04/01 01:26:17;;;;;;;4.53;1.35;;;9.40;91.90;;;;;;5094949;28;20479;-73
2021/04/01 01:28:44;;;;;;;4.55;1.33;;;9.40;92.20;;;;;;5095741;28;20164;-71
2021/04/01 01:31:11;;;;;;;3.88;1.50;;;9.30;92.40;;;;;;5093896;28;20596;-72
2021/04/01 01:33:41;;;;;;;3.55;1.02;;;9.30;92.60;;;;;;5094390;28;20199;-73
2021/04/01 01:36:08;;;;;;;3.70;1.30;;;9.30;92.90;;;;;;5094526;28;20189;-71
2021/04/01 01:38:34;;;;;;;5.90;1.88;;;9.20;93.00;;;;;;5094738;28;20195;-72
2021/04/01 01:41:01;;;;;;;4.47;1.10;;;9.20;93.00;;;;;;5094285;28;20529;-72
2021/04/01 01:43:27;;;;;;;6.22;1.45;;;9.20;93.10;;;;;;5094523;28;20394;-72
2021/04/01 01:45:52;;;;;;;4.00;1.50;;;9.20;93.30;;;;;;5094097;28;20187;-72
2021/04/01 01:48:18;;;;;;;3.37;1.03;;;9.10;93.50;;;;;;5094299;28;20548;-72
2021/04/01 01:50:44;;;;;;;3.43;1.10;;;9.10;93.80;;;;;;5092749;28;20683;-72
2021/04/01 01:53:10;;;;;;;4.03;1.43;;;9.10;94.10;;;;;;5094498;28;20630;-71
2021/04/01 01:55:37;;;;;;;3.20;1.20;;;9.00;94.30;;;;;;5093805;28;20273;-72
2021/04/01 01:58:04;;;;;;;3.50;1.20;;;9.00;94.70;;;;;;5094107;28;20207;-72
2021/04/01 02:00:44;;;;;;;3.53;1.45;;;9.00;95.00;;;;;;5092942;28;20182;-72
2021/04/01 02:03:11;;;;;;;3.55;1.45;;;8.90;95.30;;;;;;5094482;28;20167;-72
2021/04/01 02:05:38;;;;;;;3.53;1.33;;;8.90;95.60;;;;;;5091961;28;20201;-72
2021/04/01 02:08:06;;;;;;;4.85;1.35;;;8.90;95.70;;;;;;5094183;28;20523;-72
2021/04/01 02:10:34;;;;;;;4.38;1.48;;;8.90;95.80;;;;;;5092722;28;20513;-72
2021/04/01 02:13:00;;;;;;;4.05;1.50;;;8.90;96.00;;;;;;5093553;28;20523;-72
2021/04/01 02:15:32;;;;;;;4.25;1.30;;;8.90;96.20;;;;;;5093263;28;20239;-72
2021/04/01 02:18:14;;;;;;;5.35;1.75;;;8.90;96.40;;;;;;5093807;28;20203;-73
2021/04/01 02:20:43;;;;;;;4.45;0.85;;;8.80;96.70;;;;;;5092730;28;20520;-71
2021/04/01 02:23:14;;;;;;;4.28;1.52;;;8.80;96.80;;;;;;5093817;28;20170;-71
2021/04/01 02:25:41;;;;;;;3.85;1.25;;;8.80;97.10;;;;;;5093245;28;20552;-72
2021/04/01 02:28:07;;;;;;;5.00;2.00;;;8.70;97.30;;;;;;5093622;28;20693;-72
2021/04/01 02:30:37;;;;;;;3.20;1.30;;;8.70;97.60;;;;;;5092668;28;20181;-71
2021/04/01 02:33:03;;;;;;;4.47;1.90;;;8.70;97.90;;;;;;5092457;28;20420;-72
2021/04/01 02:35:29;;;;;;;3.42;1.00;;;8.70;98.10;;;;;;5093224;28;20188;-72
2021/04/01 02:37:55;;;;;;;4.70;1.88;;;8.70;98.30;;;;;;5093733;28;20634;-72
2021/04/01 02:40:22;;;;;;;4.00;1.40;;;8.70;98.10;;;;;;5093311;28;20247;-72
2021/04/01 02:42:48;;;;;;;3.63;1.15;;;8.80;98.20;;;;;;5093513;28;20431;-72
2021/04/01 02:45:14;;;;;;;4.40;1.30;;;8.70;98.30;;;;;;5091855;28;20166;-71
2021/04/01 02:47:40;;;;;;;3.20;1.15;;;8.70;98.30;;;;;;5093364;28;20228;-73
2021/04/01 02:50:08;;;;;;;3.10;0.80;;;8.70;98.50;;;;;;5093467;28;20173;-73
2021/04/01 02:52:34;;;;;;;4.45;1.30;;;8.70;98.50;;;;;;5093484;28;20165;-72
2021/04/01 02:55:00;;;;;;;3.40;1.17;;;8.70;98.50;;;;;;5091710;28;20173;-71
2021/04/01 02:57:26;;;;;;;3.40;1.70;;;8.70;98.70;;;;;;5093384;28;20224;-72
2021/04/01 02:59:52;;;;;;;3.50;1.53;;;8.60;98.90;;;;;;5093468;28;20650;-72
2021/04/01 03:02:18;;;;;;;4.50;2.00;;;8.60;99.10;;;;;;5091866;28;20170;-72
2021/04/01 03:04:45;;;;;;;4.85;1.95;;;8.60;99.20;;;;;;5092979;28;20168;-72
2021/04/01 03:07:11;;;;;;;4.30;1.30;;;8.60;99.20;;;;;;5091956;28;20194;-72
2021/04/01 03:09:37;;;;;;;4.30;1.30;;;8.50;99.40;;;;;;5093371;28;20163;-72
2021/04/01 03:12:03;;;;;;;6.00;2.40;;;8.50;99.70;;;;;;5093156;28;20170;-71
2021/04/01 03:14:29;;;;;;;3.88;1.27;;;8.50;99.70;;;;;;5092898;28;20185;-72
2021/04/01 03:16:55;;;;;;;3.40;1.30;;;8.50;99.80;;;;;;5093070;28;20184;-71
2021/04/01 03:19:21;;;;;;;3.90;1.00;;;8.50;99.90;;;;;;5093029;28;20197;-73
2021/04/01 03:21:46;;;;;;;3.90;1.20;;;8.50;99.90;;;;;;5093115;28;20219;-72
2021/04/01 03:24:13;;;;;;;5.00;1.57;;;8.40;99.90;;;;;;5091477;28;20416;-72
2021/04/01 03:26:40;;;;;;;3.78;1.00;;;8.40;99.90;;;;;;5092724;28;20267;-71
2021/04/01 03:29:06;;;;;;;4.43;2.15;;;8.40;99.90;;;;;;5091907;28;20180;-72
2021/04/01 03:31:32;;;;;;;4.05;1.42;;;8.40;99.90;;;;;;5093211;28;20200;-72
2021/04/01 03:33:57;;;;;;;4.50;1.43;;;8.40;99.90;;;;;;5092570;28;20217;-70
2021/04/01 03:36:23;;;;;;;4.50;1.27;;;8.30;99.90;;;;;;5093064;28;20213;-72
2021/04/01 03:38:50;;;;;;;3.40;1.10;;;8.40;99.90;;;;;;5092972;28;20198;-72
2021/04/01 03:41:16;;;;;;;5.25;1.60;;;8.40;99.90;;;;;;5093107;28;20623;-72
2021/04/01 03:43:42;;;;;;;4.00;1.23;;;8.30;99.90;;;;;;5092842;28;20241;-74
2021/04/01 03:46:08;;;;;;;4.68;1.48;;;8.40;99.90;;;;;;5092807;28;20793;-72
2021/04/01 03:48:34;;;;;;;4.65;1.52;;;8.40;99.90;;;;;;5092611;28;20566;-72
2021/04/01 03:51:00;;;;;;;3.30;0.90;;;8.40;99.90;;;;;;5092662;28;20188;-71
2021/04/01 03:53:25;;;;;;;3.73;1.20;;;8.30;99.90;;;;;;5091579;28;20176;-72
2021/04/01 03:55:52;;;;;;;3.20;0.90;;;8.30;99.90;;;;;;5095821;28;20189;-72
2021/04/01 04:03:42;;;;;;;3.83;1.15;;;8.30;99.90;;;;;;5096624;28;20195;-72
2021/04/01 04:08:56;;;;;;;3.50;1.33;;;8.20;99.90;;;;;;5096582;28;20196;-71
2021/04/01 04:16:28;;;;;;;6.80;1.42;;;8.10;99.90;;;;;;5096298;28;20192;-71
2021/04/01 04:18:55;;;;;;;4.30;1.50;;;8.00;99.90;;;;;;5095589;28;20200;-71
2021/04/01 04:21:21;;;;;;;3.33;0.90;;;8.00;99.90;;;;;;5096101;28;20162;-72
2021/04/01 04:23:48;;;;;;;4.17;1.40;;;8.00;99.90;;;;;;5095562;28;20174;-73
2021/04/01 04:26:15;;;;;;;4.85;1.45;;;8.00;99.90;;;;;;5096110;28;20208;-72
2021/04/01 04:28:41;;;;;;;3.45;1.00;;;8.00;99.90;;;;;;5095879;28;20168;-73
2021/04/01 04:31:10;;;;;;;3.92;1.42;;;8.00;99.90;;;;;;5095889;28;20181;-71
2021/04/01 04:33:36;;;;;;;4.47;1.70;;;8.00;99.90;;;;;;5094031;28;20179;-72
2021/04/01 04:36:03;;;;;;;5.15;1.00;;;8.00;99.90;;;;;;5095500;28;20197;-72
2021/04/01 04:38:29;;;;;;;4.72;1.45;;;8.00;99.90;;;;;;5095679;28;20198;-72
2021/04/01 04:40:59;;;;;;;4.20;1.50;;;8.10;99.90;;;;;;5095815;28;20161;-72
2021/04/01 04:43:26;;;;;;;3.40;0.90;;;8.00;99.90;;;;;;5095901;28;20788;-72
2021/04/01 04:45:52;;;;;;;8.30;1.45;;;8.00;99.90;;;;;;5095341;28;20229;-72
2021/04/01 04:48:17;;;;;;;3.30;0.93;;;8.00;99.90;;;;;;5095319;28;20670;-70
2021/04/01 04:50:44;;;;;;;3.93;1.23;;;7.90;99.90;;;;;;5095466;28;20211;-72
2021/04/01 04:53:10;;;;;;;3.33;0.88;;;7.90;99.90;;;;;;5095532;28;20531;-71
2021/04/01 04:55:36;;;;;;;3.45;1.23;;;7.90;99.90;;;;;;5094613;28;20196;-71
2021/04/01 04:58:22;;;;;;;3.87;1.30;;;7.90;99.90;;;;;;5095470;28;20197;-72
2021/04/01 05:06:45;;;;;;;3.50;0.82;;;7.90;99.90;;;;;;5094369;28;20226;-72
2021/04/01 05:09:10;;;;;;;4.03;1.25;;;7.90;99.90;;;;;;5095274;28;20556;-72
2021/04/01 05:11:36;;;;;;;4.83;2.30;;;7.90;99.90;;;;;;5094676;28;20231;-71
2021/04/01 05:14:02;;;;;;;3.80;1.50;;;8.00;99.90;;;;;;5094794;28;20410;-73
2021/04/01 05:16:28;;;;;;;4.18;1.40;;;8.00;99.90;;;;;;5095016;28;20200;-71
2021/04/01 05:18:56;;;;;;;3.80;1.30;;;8.00;99.90;;;;;;5093978;28;20235;-71
2021/04/01 05:21:29;;;;;;;4.32;1.48;;;8.20;99.90;;;;;;5095128;28;20185;-73
2021/04/01 05:23:56;;;;;;;4.20;1.83;;;8.30;99.90;;;;;;5095087;28;20170;-71
2021/04/01 05:28:57;;;;;;;4.50;1.90;;;8.70;99.90;;;;;;5095053;28;20169;-72
2021/04/01 05:31:41;;;;;;;4.18;1.48;;;8.80;99.90;;;;;;5095030;28;20174;-72
2021/04/01 05:34:07;;;;;;;4.43;1.70;;;9.10;99.90;;;;;;5094228;28;20176;-70
2021/04/01 05:36:38;;;;;;;4.93;1.98;;;9.30;99.90;;;;;;5094713;28;20188;-70
2021/04/01 05:39:06;;;;;;;4.85;1.40;;;9.50;99.90;;;;;;5093540;28;20678;-72
2021/04/01 05:41:31;;;;;;;4.30;1.25;;;9.70;99.90;;;;;;5094862;28;20668;-72
2021/04/01 05:44:09;;;;;;;3.73;1.60;;;9.70;99.90;;;;;;5092920;28;20168;-70
2021/04/01 05:49:19;;;;;;;8.68;1.90;;;9.80;99.90;;;;;;5094480;28;20593;-72
2021/04/01 06:00:11;;;;;;;4.00;1.65;;;10.40;98.50;;;;;;5092597;28;20180;-70
2021/04/01 06:05:47;;;;;;;5.32;1.80;;;10.50;98.30;;;;;;5093595;28;20272;-72
2021/04/01 06:08:18;;;;;;;5.28;2.13;;;10.80;97.90;;;;;;5094142;28;20309;-72
2021/04/01 06:10:45;;;;;;;5.30;1.92;;;11.10;97.40;;;;;;5094195;28;20538;-73
2021/04/01 06:13:13;;;;;;;6.65;2.08;;;11.50;96.90;;;;;;5093953;28;20196;-72
2021/04/01 06:15:50;;;;;;;5.88;2.25;;;11.80;96.00;;;;;;5093646;28;20188;-72
2021/04/01 06:18:19;;;;;;;5.20;2.55;;;12.20;95.30;;;;;;5093404;28;20257;-72
2021/04/01 06:20:47;;;;;;;5.27;2.97;;;12.60;94.70;;;;;;5093501;28;20172;-72
2021/04/01 06:23:29;;;;;;;7.00;2.00;;;12.90;94.00;;;;;;5094059;28;20406;-72
2021/04/01 06:25:59;;;;;;;5.10;2.13;;;13.30;93.40;;;;;;5093650;28;20459;-73
2021/04/01 06:28:36;;;;;;;4.60;2.23;;;13.60;92.60;;;;;;5094043;28;20478;-72
2021/04/01 06:31:03;;;;;;;4.80;2.77;;;14.00;92.10;;;;;;5093990;28;20431;-72
2021/04/01 06:33:28;;;;;;;6.27;2.63;;;14.60;90.90;;;;;;5093169;28;20924;-73
2021/04/01 06:36:01;;;;;;;5.90;3.30;;;15.10;90.10;;;;;;5091619;28;20533;-73
2021/04/01 06:38:35;;;;;;;6.33;3.07;;;15.50;88.70;;;;;;5093938;28;20222;-73
2021/04/01 06:41:12;;;;;;;5.57;2.40;;;15.80;86.80;;;;;;5093834;28;20396;-73
2021/04/01 06:44:07;;;;;;;5.60;3.03;;;16.00;85.60;;;;;;5093839;28;20406;-73
2021/04/01 06:46:43;;;;;;;5.53;2.80;;;15.90;84.70;;;;;;5093706;28;20482;-72
2021/04/01 06:49:26;;;;;;;6.47;3.47;;;15.50;85.90;;;;;;5092527;28;20420;-72
2021/04/01 06:52:08;;;;;;;6.60;3.17;;;15.20;86.40;;;;;;5090176;28;20747;-72
2021/04/01 06:54:46;;;;;;;5.60;2.60;;;15.20;85.60;;;;;;5093081;28;20402;-72
2021/04/01 06:57:35;;;;;;;11.00;2.67;;;15.10;85.60;;;;;;5093659;28;20431;-73
2021/04/01 07:00:34;;;;;;;4.90;2.50;;;15.00;85.90;;;;;;5093818;28;20397;-73
2021/04/01 07:03:24;;;;;;;9.20;3.47;;;15.10;86.90;;;;;;5092888;28;20418;-73
2021/04/01 07:09:00;;;;;;;9.67;3.77;;;15.50;85.20;;;;;;5093512;28;20466;-72
2021/04/01 07:11:33;;;;;;;6.10;3.27;;;15.50;86.70;;;;;;5092880;28;20410;-73
2021/04/01 07:14:09;;;;;;;6.43;3.53;;;15.80;86.90;;;;;;5092957;28;20405;-72
2021/04/01 07:36:03;;;;;;;5.97;3.20;;;19.60;74.90;;;;;;5075085;28;20462;-72
2021/04/01 07:47:04;;;;;;;6.27;3.53;;;20.60;70.00;;;;;;5086106;28;20766;-73
2021/04/01 07:49:31;;;;;;;5.20;3.07;;;21.10;68.40;;;;;;5096875;28;20398;-73
2021/04/01 07:52:02;;;;;;;5.00;2.80;;;21.80;67.50;;;;;;5096236;28;20426;-72
2021/04/01 07:54:54;;;;;;;6.50;2.90;;;22.60;63.80;;;;;;5096452;28;20403;-72
2021/04/01 08:05:30;;;;;;;5.40;3.30;;;26.80;54.30;;;;;;5095698;28;20416;-71
2021/04/01 08:08:06;;;;;;;5.70;3.00;;;27.90;52.20;;;;;;5096447;28;20398;-73
2021/04/01 08:10:40;;;;;;;4.80;3.43;;;28.90;49.90;;;;;;5096291;28;20739;-72
2021/04/01 08:13:10;;;;;;;6.70;3.93;;;29.40;47.30;;;;;;5096393;28;20404;-72
2021/04/01 08:15:43;;;;;;;4.93;3.13;;;29.30;47.10;;;;;;5095440;28;20449;-72
2021/04/01 08:20:50;;;;;;;14.50;10.20;;;30.10;45.80;;;;;;5096341;28;20373;-72
2021/04/01 08:23:25;;;;;;;6.67;3.73;;;30.50;44.40;;;;;;5094804;28;20387;-72
2021/04/01 08:26:10;;;;;;;6.57;3.70;;;30.30;44.80;;;;;;5095657;28;20771;-72
2021/04/01 08:33:52;;;;;;;5.70;3.37;;;29.40;44.40;;;;;;5095901;28;20454;-72
2021/04/01 08:36:23;;;;;;;6.53;3.30;;;28.90;45.10;;;;;;5095795;28;20431;-71
2021/04/01 08:38:50;;;;;;;6.77;3.63;;;28.80;45.70;;;;;;5095797;28;20418;-72
2021/04/01 08:41:34;;;;;;;5.53;4.00;;;29.40;44.80;;;;;;5095437;28;20406;-72
2021/04/01 08:44:34;;;;;;;6.30;3.60;;;29.70;44.70;;;;;;5095236;28;20462;-74
2021/04/01 08:47:20;;;;;;;6.43;3.57;;;30.30;44.00;;;;;;5094326;28;20543;-73
2021/04/01 08:50:04;;;;;;;4.50;3.03;;;31.00;43.60;;;;;;5074146;28;20465;-73
2021/04/01 08:53:06;;;;;;;4.23;3.30;;;31.70;42.90;;;;;;5095772;28;20455;-71
2021/04/01 08:55:41;;;;;;;7.30;3.10;;;32.10;42.00;;;;;;5046921;28;20452;-72
2021/04/01 08:58:31;;;;;;;4.07;3.07;;;32.30;41.90;;;;;;5086922;28;20385;-71
2021/04/01 09:01:15;;;;;;;4.90;3.23;;;32.70;40.50;;;;;;5094034;28;20423;-70
2021/04/01 09:03:47;;;;;;;4.47;3.23;;;32.80;40.30;;;;;;5095344;28;20402;-69
2021/04/01 09:06:17;;;;;;;5.70;3.37;;;32.50;40.70;;;;;;5093856;28;20433;-72
2021/04/01 09:08:53;;;;;;;4.33;2.87;;;32.20;40.70;;;;;;5095340;28;20442;-71
2021/04/01 09:11:33;;;;;;;5.10;3.07;;;31.70;40.20;;;;;;5094817;28;20761;-71
2021/04/01 09:14:00;;;;;;;4.90;3.57;;;32.20;40.50;;;;;;5094951;28;20387;-72
2021/04/01 09:16:29;;;;;;;4.90;3.40;;;32.30;40.40;;;;;;5094670;28;20472;-71
2021/04/01 09:19:03;;;;;;;5.80;3.60;;;32.00;39.60;;;;;;5094985;28;20876;-72
2021/04/01 09:21:32;;;;;;;6.13;3.70;;;31.70;40.40;;;;;;5095227;28;20402;-72
2021/04/01 09:23:58;;;;;;;5.73;3.73;;;31.10;40.90;;;;;;5094940;28;20384;-72
2021/04/01 09:26:25;;;;;;;6.77;3.57;;;30.50;41.50;;;;;;5094796;28;20555;-72
2021/04/01 09:29:02;;;;;;;6.73;3.73;;;30.30;42.50;;;;;;5093573;28;20440;-72
2021/04/01 09:31:35;;;;;;;6.63;4.30;;;29.90;43.40;;;;;;5094445;28;20834;-72
2021/04/01 09:34:04;;;;;;;5.63;3.83;;;29.50;43.60;;;;;;5094425;28;20380;-72
2021/04/01 09:36:43;;;;;;;11.20;3.60;;;29.00;44.10;;;;;;5094775;28;20432;-72
2021/04/01 09:39:25;;;;;;;5.50;3.80;;;28.90;44.40;;;;;;5094204;28;20428;-72
2021/04/01 09:42:12;;;;;;;6.50;3.83;;;28.80;44.00;;;;;;5094601;28;20381;-72
2021/04/01 09:44:49;;;;;;;5.53;3.80;;;28.90;45.00;;;;;;5093591;28;20431;-73
2021/04/01 09:47:34;;;;;;;6.83;3.67;;;29.40;44.80;;;;;;5094487;28;20442;-72
2021/04/01 09:50:07;;;;;;;7.17;3.53;;;29.70;43.80;;;;;;5093238;28;20373;-72
2021/04/01 09:52:34;;;;;;;8.73;4.27;;;30.20;43.80;;;;;;5093700;28;20372;-73
2021/04/01 09:55:06;;;;;;;6.50;3.30;;;30.60;43.00;;;;;;5093361;28;20424;-72
2021/04/01 09:57:44;;;;;;;7.63;4.27;;;30.50;42.70;;;;;;5076442;28;20385;-72
2021/04/01 10:00:23;;;;;;;6.40;4.40;;;30.20;42.60;;;;;;5094164;28;20375;-72
2021/04/01 10:03:14;;;;;;;5.73;3.70;;;30.10;43.50;;;;;;5094279;28;20388;-73
2021/04/01 10:05:48;;;;;;;4.50;3.07;;;30.30;43.20;;;;;;5093742;28;20450;-71
2021/04/01 10:08:28;;;;;;;6.43;3.60;;;30.60;42.90;;;;;;5093855;28;21032;-72
2021/04/01 10:11:03;;;;;;;5.00;3.93;;;30.90;42.60;;;;;;5094382;28;20426;-72
2021/04/01 10:13:30;;;;;;;6.00;3.30;;;31.60;42.70;;;;;;5093940;28;20379;-72
2021/04/01 10:15:59;;;;;;;4.37;3.10;;;32.00;40.80;;;;;;5092203;28;20493;-71
2021/04/01 10:18:36;;;;;;;4.77;2.60;;;32.40;41.50;;;;;;5093969;28;20813;-72
2021/04/01 10:21:04;;;;;;;4.00;2.60;;;32.60;38.60;;;;;;5094165;28;20441;-71
2021/04/01 10:23:41;;;;;;;5.70;3.10;;;32.90;39.80;;;;;;5092304;28;20407;-72
2021/04/01 10:26:08;;;;;;;4.90;2.67;;;33.10;39.20;;;;;;5093461;28;20464;-73
2021/04/01 10:28:43;;;;;;;4.63;2.40;;;33.10;39.50;;;;;;5093687;28;20431;-71
2021/04/01 10:31:17;;;;;;;5.23;2.97;;;33.00;39.50;;;;;;5093863;28;20383;-71
2021/04/01 10:33:53;;;;;;;6.40;2.70;;;33.10;38.80;;;;;;5092280;28;20385;-72
2021/04/01 10:36:26;;;;;;;4.53;2.80;;;32.60;39.10;;;;;;5093635;28;20400;-71
2021/04/01 10:39:09;;;;;;;3.67;2.30;;;32.50;39.10;;;;;;5093567;28;20486;-70
2021/04/01 10:41:54;;;;;;;4.93;2.83;;;31.90;39.60;;;;;;5092399;28;20859;-70
2021/04/01 10:44:22;;;;;;;4.50;2.60;;;31.40;40.60;;;;;;5093263;28;20431;-71
2021/04/01 10:46:52;;;;;;;3.90;2.50;;;31.40;40.80;;;;;;5093403;28;20405;-70
2021/04/01 10:49:29;;;;;;;3.83;2.77;;;31.80;41.50;;;;;;5093415;28;20428;-70
2021/04/01 10:52:00;;;;;;;4.00;2.43;;;32.10;41.30;;;;;;5093298;28;20398;-70
2021/04/01 10:54:46;;;;;;;4.43;2.57;;;32.20;40.80;;;;;;5093155;28;20894;-71
2021/04/01 10:57:33;;;;;;;5.47;2.33;;;31.80;40.00;;;;;;5093464;28;20410;-70
2021/04/01 11:00:00;;;;;;;4.03;2.27;;;31.50;41.20;;;;;;5093391;28;20401;-71
2021/04/01 11:02:48;;;;;;;3.83;2.30;;;31.50;41.20;;;;;;5091818;28;20404;-68
2021/04/01 11:05:16;;;;;;;4.17;2.70;;;31.20;41.50;;;;;;5097194;28;20372;-70
2021/04/01 11:07:49;;;;;;;3.47;2.07;;;30.90;42.00;;;;;;5097614;28;20394;-71
2021/04/01 11:10:22;;;;;;;3.83;2.37;;;30.70;41.90;;;;;;5096227;28;20402;-70
2021/04/01 11:12:59;;;;;;;10.37;2.80;;;30.10;41.90;;;;;;5096247;28;20414;-71
2021/04/01 11:15:37;;;;;;;3.93;2.53;;;29.20;42.60;;;;;;5095459;28;20839;-70
2021/04/01 11:18:11;;;;;;;4.10;2.13;;;28.30;43.80;;;;;;5096012;28;20429;-70
2021/04/01 11:20:39;;;;;;;3.70;2.07;;;27.60;44.20;;;;;;5097442;28;20791;-68
2021/04/01 11:23:28;;;;;;;3.37;2.03;;;27.00;45.60;;;;;;5097434;28;20410;-71
2021/04/01 11:25:59;;;;;;;3.47;1.83;;;26.30;45.90;;;;;;5095411;28;20474;-71
2021/04/01 11:28:39;;;;;;;3.10;1.50;;;25.90;46.90;;;;;;5097321;28;20865;-71
2021/04/01 11:31:24;;;;;;;5.43;1.90;;;25.60;48.80;;;;;;5097185;28;20406;-71
2021/04/01 11:34:00;;;;;;;4.13;2.07;;;25.60;50.10;;;;;;5097116;28;20420;-71
2021/04/01 11:36:30;;;;;;;4.10;2.13;;;25.60;49.10;;;;;;5096940;28;20452;-71
2021/04/01 11:39:02;;;;;;;3.90;1.93;;;25.60;49.70;;;;;;5096709;28;20418;-70
2021/04/01 11:41:28;;;;;;;4.60;1.97;;;25.60;49.20;;;;;;5096965;28;20454;-71
2021/04/01 11:43:57;;;;;;;8.20;2.27;;;25.60;49.00;;;;;;5096661;28;20421;-71
2021/04/01 11:46:33;;;;;;;3.00;1.30;;;25.60;48.10;;;;;;5096918;28;20428;-71
2021/04/01 11:48:59;;;;;;;5.43;1.90;;;25.60;48.10;;;;;;5095517;28;20482;-71
2021/04/01 11:51:34;;;;;;;3.17;1.67;;;25.50;48.80;;;;;;5095562;28;20484;-68
2021/04/01 11:54:01;;;;;;;3.40;1.80;;;25.50;48.90;;;;;;5094855;28;20429;-71
2021/04/01 11:56:37;;;;;;;4.07;1.93;;;25.40;49.50;;;;;;5096709;28;20417;-71
2021/04/01 11:59:10;;;;;;;3.90;2.10;;;25.40;49.40;;;;;;5096625;28;20413;-69
2021/04/01 12:01:48;;;;;;;3.63;1.90;;;25.40;49.80;;;;;;5096157;28;20406;-72
2021/04/01 12:04:15;;;;;;;5.27;2.07;;;25.40;49.70;;;;;;5096535;28;20398;-71
2021/04/01 12:06:40;;;;;;;4.53;2.10;;;25.40;50.00;;;;;;5096202;28;20528;-71
2021/04/01 12:09:09;;;;;;;3.80;2.03;;;25.30;50.30;;;;;;5096443;28;20525;-71
2021/04/01 12:11:45;;;;;;;3.40;1.63;;;25.20;49.70;;;;;;5096365;28;20526;-72
2021/04/01 12:14:13;;;;;;;2.83;1.37;;;25.20;50.10;;;;;;5095869;28;20417;-71
2021/04/01 12:16:39;;;;;;;3.47;1.70;;;25.20;48.60;;;;;;5095702;28;20483;-71
2021/04/01 12:19:06;;;;;;;4.93;1.83;;;25.20;50.10;;;;;;5095902;28;20531;-71
2021/04/01 12:21:32;;;;;;;4.90;2.10;;;25.20;50.50;;;;;;5096208;28;20895;-69
2021/04/01 12:24:03;;;;;;;5.00;2.37;;;25.40;50.00;;;;;;5095382;28;20405;-71
2021/04/01 12:26:41;;;;;;;3.57;1.60;;;25.30;50.30;;;;;;5095479;28;20442;-72
2021/04/01 12:29:06;;;;;;;3.77;1.63;;;25.30;49.40;;;;;;5096153;28;20488;-72
2021/04/01 12:31:38;;;;;;;4.00;2.23;;;25.30;48.40;;;;;;5095906;28;20451;-72
2021/04/01 12:34:05;;;;;;;3.60;1.83;;;25.20;48.60;;;;;;5095283;28;20248;-72
2021/04/01 12:36:36;;;;;;;5.00;2.20;;;25.20;48.80;;;;;;5095859;28;20509;-70
2021/04/01 12:39:05;;;;;;;3.90;1.53;;;25.20;49.80;;;;;;5095913;28;20774;-71
2021/04/01 12:41:33;;;;;;;3.97;1.90;;;25.10;49.30;;;;;;5095766;28;20402;-70
2021/04/01 12:43:59;;;;;;;3.63;1.77;;;25.10;49.60;;;;;;5095296;28;20500;-71
2021/04/01 12:46:43;;;;;;;3.53;2.10;;;25.00;48.90;;;;;;5095753;28;20428;-68
2021/04/01 12:49:11;;;;;;;5.87;2.30;;;25.00;49.10;;;;;;5095191;28;20547;-69
2021/04/01 12:52:00;;;;;;;3.80;2.10;;;24.90;49.40;;;;;;5095269;28;20398;-71
2021/04/01 12:54:28;;;;;;;4.50;2.30;;;24.90;49.50;;;;;;5093577;28;20407;-72
2021/04/01 12:57:07;;;;;;;4.10;2.10;;;25.00;50.20;;;;;;5095155;28;20442;-71
2021/04/01 12:59:38;;;;;;;3.60;1.80;;;25.10;50.70;;;;;;5095346;28;20484;-70
2021/04/01 13:02:10;;;;;;;3.60;2.23;;;25.20;48.50;;;;;;5094996;28;20441;-70
2021/04/01 13:04:38;;;;;;;3.70;1.80;;;25.20;48.50;;;;;;5080008;28;20441;-71
2021/04/01 13:12:15;;;;;;;7.33;1.70;;;25.30;48.50;;;;;;5095474;28;20492;-71
2021/04/01 13:14:42;;;;;;;4.83;1.90;;;25.20;48.50;;;;;;5093482;28;20421;-70
2021/04/01 13:17:08;;;;;;;3.37;1.73;;;25.20;48.40;;;;;;5093185;28;20438;-70
2021/04/01 13:19:34;;;;;;;6.20;2.93;;;25.20;48.20;;;;;;5095393;28;20406;-72
2021/04/01 13:27:06;;;;;;;4.47;2.20;;;24.80;48.90;;;;;;5093900;28;20442;-71
2021/04/01 13:29:34;;;;;;;6.60;2.47;;;24.80;49.10;;;;;;5094787;28;20441;-71
2021/04/01 13:37:29;;;;;;;3.00;1.73;;;24.80;48.90;;;;;;5094395;28;20777;-71
2021/04/01 13:40:16;;;;;;;3.70;1.83;;;24.80;49.10;;;;;;5094564;28;20437;-70
2021/04/01 13:42:45;;;;;;;4.03;2.27;;;24.80;49.10;;;;;;5094601;28;20413;-73
2021/04/01 13:45:13;;;;;;;4.30;1.80;;;24.80;48.70;;;;;;5094105;28;20459;-70
2021/04/01 13:47:44;;;;;;;3.80;1.63;;;24.80;49.10;;;;;;5094085;28;20771;-69
2021/04/01 13:50:14;;;;;;;3.67;2.10;;;24.70;48.20;;;;;;5094448;28;20408;-70
2021/04/01 13:55:41;;;;;;;4.20;2.10;;;24.40;48.60;;;;;;5094047;28;20445;-70
2021/04/01 14:09:36;;;;;;;6.57;1.67;;;24.00;47.60;;;;;;5094118;28;20454;-72
2021/04/01 14:12:07;;;;;;;4.27;2.17;;;24.10;48.40;;;;;;5094181;28;20402;-69
2021/04/01 14:14:35;;;;;;;3.70;1.80;;;24.20;48.40;;;;;;5093574;28;20466;-70
2021/04/01 14:17:04;;;;;;;3.80;1.70;;;24.20;49.00;;;;;;5093170;28;20453;-70
2021/04/01 14:19:31;;;;;;;3.93;1.83;;;24.20;48.40;;;;;;5092548;28;20432;-70
2021/04/01 14:22:00;;;;;;;5.33;1.93;;;24.20;48.60;;;;;;5093918;28;20878;-71
2021/04/01 14:24:32;;;;;;;5.27;2.23;;;24.20;48.30;;;;;;5093164;28;20426;-69
2021/04/01 14:29:31;;;;;;;4.20;2.00;;;24.00;48.40;;;;;;5093675;28;20474;-70
2021/04/01 14:31:57;;;;;;;5.07;2.27;;;23.80;48.70;;;;;;5093850;28;20402;-71
2021/04/01 14:34:23;;;;;;;4.37;2.40;;;23.80;49.10;;;;;;5093288;28;20507;-71
2021/04/01 14:36:56;;;;;;;3.40;1.73;;;23.80;49.10;;;;;;5093712;28;20435;-70
2021/04/01 14:39:25;;;;;;;3.60;1.57;;;23.80;49.30;;;;;;5092820;28;20514;-70
2021/04/01 14:42:11;;;;;;;3.67;1.63;;;23.80;48.70;;;;;;5093646;28;20408;-70
2021/04/01 14:44:37;;;;;;;4.40;1.70;;;23.80;50.00;;;;;;5092875;28;20481;-70
2021/04/01 14:47:03;;;;;;;3.47;2.00;;;23.80;49.20;;;;;;5093354;28;20415;-71
2021/04/01 14:49:29;;;;;;;3.50;1.53;;;23.80;49.10;;;;;;5092210;28;20568;-71
2021/04/01 14:51:55;;;;;;;4.80;2.20;;;23.80;48.70;;;;;;5093133;28;20474;-70
2021/04/01 14:54:29;;;;;;;3.67;1.90;;;23.80;48.50;;;;;;5093011;28;20175;-71
2021/04/01 14:57:18;;;;;;;6.10;2.43;;;23.70;48.60;;;;;;5093225;28;20430;-69
2021/04/01 14:59:46;;;;;;;3.97;1.93;;;23.70;49.10;;;;;;5092875;28;20425;-70
2021/04/01 15:02:16;;;;;;;4.27;2.27;;;23.80;49.80;;;;;;5093188;28;20421;-69
2021/04/01 15:04:42;;;;;;;4.03;1.90;;;23.80;49.50;;;;;;5093172;28;20415;-71